createdAt,value
2018-04-10T00:01:37.683Z,12.74
2018-04-10T00:04:04.024Z,12.74
2018-04-10T00:06:30.421Z,12.88
2018-04-10T00:08:56.916Z,12.93
2018-04-10T00:11:23.302Z,12.83
2018-04-10T00:13:49.746Z,12.89
2018-04-10T00:16:16.123Z,12.87
2018-04-10T00:18:47.807Z,12.96
2018-04-10T00:21:14.172Z,12.82
2018-04-10T00:23:40.539Z,12.75
2018-04-10T00:26:06.847Z,12.72
2018-04-10T00:28:33.287Z,12.66
2018-04-10T00:30:59.632Z,12.68
2018-04-10T00:33:26.040Z,12.72
2018-04-10T00:35:52.482Z,12.50
2018-04-10T00:38:18.919Z,12.51
2018-04-10T00:40:45.222Z,12.60
2018-04-10T00:43:11.628Z,12.46
2018-04-10T00:45:38.014Z,12.43
2018-04-10T00:48:04.416Z,12.44
2018-04-10T00:50:30.837Z,12.50
2018-04-10T00:53:09.518Z,12.30
2018-04-10T00:55:35.863Z,12.42
2018-04-10T00:58:02.228Z,12.33
2018-04-10T01:00:28.601Z,12.20
2018-04-10T01:02:54.955Z,12.35
2018-04-10T01:05:21.371Z,12.41
2018-04-10T01:07:47.695Z,12.32
2018-04-10T01:10:14.173Z,12.39
2018-04-10T01:12:40.572Z,12.16
2018-04-10T01:15:06.912Z,11.99
2018-04-10T01:17:33.303Z,12.10
2018-04-10T01:20:01.683Z,12.06
2018-04-10T01:22:27.997Z,12.01
2018-04-10T01:24:54.440Z,12.04
2018-04-10T01:27:20.859Z,12.03
2018-04-10T01:29:48.319Z,11.99
2018-04-10T01:32:14.740Z,12.06
2018-04-10T01:34:41.059Z,12.03
2018-04-10T01:37:07.360Z,11.81
2018-04-10T01:39:34.816Z,11.85
2018-04-10T01:42:01.168Z,11.97
2018-04-10T01:44:27.584Z,11.88
2018-04-10T01:46:53.971Z,11.69
2018-04-10T01:49:20.497Z,11.76
2018-04-10T01:51:46.895Z,11.70
2018-04-10T01:54:13.322Z,11.64
2018-04-10T01:56:39.659Z,11.55
2018-04-10T01:59:06.687Z,11.27
2018-04-10T02:01:33.052Z,11.26
2018-04-10T02:03:59.476Z,10.95
2018-04-10T02:06:25.800Z,10.62
2018-04-10T02:08:52.172Z,10.78
2018-04-10T02:11:18.713Z,10.88
2018-04-10T02:13:45.175Z,11.07
2018-04-10T02:16:11.628Z,11.10
2018-04-10T02:18:38.056Z,11.10
2018-04-10T02:21:04.411Z,11.00
2018-04-10T02:23:30.787Z,11.16
2018-04-10T02:25:57.112Z,11.14
2018-04-10T02:28:23.488Z,11.00
2018-04-10T02:30:49.877Z,11.10
2018-04-10T02:33:16.192Z,11.07
2018-04-10T02:35:42.519Z,11.08
2018-04-10T02:38:08.844Z,10.73
2018-04-10T02:40:35.202Z,10.35
2018-04-10T02:43:01.613Z,9.97
2018-04-10T02:45:27.938Z,9.63
2018-04-10T02:47:54.343Z,9.19
2018-04-10T02:50:20.726Z,9.02
2018-04-10T02:52:47.133Z,8.85
2018-04-10T02:55:13.531Z,8.75
2018-04-10T02:57:39.857Z,8.63
2018-04-10T03:00:08.281Z,8.65
2018-04-10T03:02:34.658Z,8.53
2018-04-10T03:05:01.090Z,8.49
2018-04-10T03:07:27.622Z,8.48
2018-04-10T03:09:54.184Z,8.55
2018-04-10T03:12:20.525Z,8.67
2018-04-10T03:14:46.915Z,8.40
2018-04-10T03:17:13.344Z,8.33
2018-04-10T03:19:39.739Z,8.31
2018-04-10T03:22:06.096Z,8.41
2018-04-10T03:24:32.506Z,8.37
2018-04-10T03:26:58.891Z,8.38
2018-04-10T03:29:25.394Z,8.25
2018-04-10T03:31:51.839Z,8.21
2018-04-10T03:34:18.150Z,8.31
2018-04-10T03:36:44.597Z,8.35
2018-04-10T03:39:10.975Z,8.13
2018-04-10T03:41:37.322Z,8.20
2018-04-10T03:44:03.659Z,8.01
2018-04-10T03:46:30.052Z,7.59
2018-04-10T03:48:57.515Z,7.40
2018-04-10T03:51:23.958Z,7.23
2018-04-10T03:53:50.406Z,7.14
2018-04-10T03:56:16.743Z,7.08
2018-04-10T03:58:43.210Z,7.06
2018-04-10T04:01:09.655Z,7.04
2018-04-10T04:03:36.060Z,7.06
2018-04-10T04:06:02.446Z,7.18
2018-04-10T04:08:30.931Z,7.33
2018-04-10T04:10:57.263Z,7.47
2018-04-10T04:13:23.585Z,7.63
2018-04-10T04:15:50.013Z,8.00
2018-04-10T04:18:28.577Z,8.53
2018-04-10T04:21:07.301Z,9.03
2018-04-10T04:23:33.693Z,9.39
2018-04-10T04:26:00.150Z,9.87
2018-04-10T04:28:26.615Z,10.33
2018-04-10T04:30:52.996Z,10.73
2018-04-10T04:33:19.339Z,11.48
2018-04-10T04:35:45.749Z,11.69
2018-04-10T04:38:12.076Z,11.97
2018-04-10T04:40:38.468Z,12.44
2018-04-10T04:43:04.907Z,13.02
2018-04-10T04:45:31.416Z,13.50
2018-04-10T04:47:57.803Z,13.97
2018-04-10T04:50:24.321Z,14.52
2018-04-10T04:52:50.822Z,14.97
2018-04-10T04:55:17.251Z,15.12
2018-04-10T04:57:43.687Z,15.96
2018-04-10T05:00:10.102Z,16.06
2018-04-10T05:02:36.461Z,16.30
2018-04-10T05:05:02.934Z,16.47
2018-04-10T05:07:29.314Z,16.72
2018-04-10T05:09:55.748Z,15.90
2018-04-10T05:12:22.202Z,15.01
2018-04-10T05:14:48.570Z,15.42
2018-04-10T05:17:14.981Z,15.07
2018-04-10T05:19:41.501Z,14.55
2018-04-10T05:22:07.860Z,14.85
2018-04-10T05:24:34.224Z,15.10
2018-04-10T05:27:00.837Z,15.13
2018-04-10T05:29:27.207Z,15.55
2018-04-10T05:31:53.571Z,16.02
2018-04-10T05:34:19.977Z,16.29
2018-04-10T05:36:46.333Z,16.77
2018-04-10T05:39:12.811Z,16.85
2018-04-10T05:41:39.198Z,16.83
2018-04-10T05:44:05.566Z,17.81
2018-04-10T05:46:31.964Z,17.85
2018-04-10T05:48:58.479Z,17.34
2018-04-10T05:51:24.862Z,16.37
2018-04-10T05:53:51.297Z,16.32
2018-04-10T05:56:17.777Z,16.04
2018-04-10T05:58:44.252Z,15.62
2018-04-10T06:01:10.647Z,16.52
2018-04-10T06:03:37.115Z,17.00
2018-04-10T06:06:03.568Z,16.28
2018-04-10T06:08:31.075Z,16.25
2018-04-10T06:10:57.566Z,16.39
2018-04-10T06:13:24.041Z,16.46
2018-04-10T06:15:50.429Z,16.12
2018-04-10T06:18:16.939Z,15.62
2018-04-10T06:20:43.458Z,16.37
2018-04-10T06:23:09.856Z,17.24
2018-04-10T06:25:36.253Z,17.00
2018-04-10T06:28:02.659Z,16.87
2018-04-10T06:30:29.054Z,16.56
2018-04-10T06:32:55.719Z,16.47
2018-04-10T06:35:22.064Z,16.31
2018-04-10T06:37:48.403Z,16.19
2018-04-10T06:40:14.856Z,16.00
2018-04-10T06:42:41.249Z,16.01
2018-04-10T06:45:07.656Z,16.17
2018-04-10T06:47:34.492Z,16.04
2018-04-10T06:50:00.903Z,16.18
2018-04-10T06:52:27.334Z,17.15
2018-04-10T06:54:53.840Z,16.50
2018-04-10T06:57:20.198Z,16.43
2018-04-10T06:59:46.755Z,16.22
2018-04-10T07:02:13.216Z,16.30
2018-04-10T07:04:39.624Z,16.42
2018-04-10T07:07:06.072Z,16.59
2018-04-10T07:09:32.587Z,16.92
2018-04-10T07:11:59.180Z,17.08
2018-04-10T07:14:25.654Z,16.81
2018-04-10T07:16:52.045Z,17.52
2018-04-10T07:19:18.470Z,17.48
2018-04-10T07:21:44.821Z,18.14
2018-04-10T07:24:11.353Z,17.96
2018-04-10T07:26:37.775Z,17.34
2018-04-10T07:29:04.235Z,17.62
2018-04-10T07:31:30.661Z,17.77
2018-04-10T07:33:57.101Z,17.85
2018-04-10T07:36:23.538Z,18.21
2018-04-10T07:38:50.055Z,18.04
2018-04-10T07:41:16.554Z,18.53
2018-04-10T07:43:42.914Z,18.70
2018-04-10T07:46:09.273Z,18.94
2018-04-10T07:48:35.716Z,19.19
2018-04-10T07:51:02.043Z,18.92
2018-04-10T07:53:28.453Z,19.50
2018-04-10T07:55:54.842Z,19.47
2018-04-10T07:58:21.196Z,19.56
2018-04-10T08:00:47.736Z,20.45
2018-04-10T08:03:14.107Z,19.58
2018-04-10T08:05:40.569Z,19.71
2018-04-10T08:08:07.055Z,19.55
2018-04-10T08:10:33.562Z,19.65
2018-04-10T08:13:00.036Z,19.65
2018-04-10T08:15:26.577Z,20.01
2018-04-10T08:17:52.999Z,19.97
2018-04-10T08:20:19.417Z,19.91
2018-04-10T08:22:45.915Z,19.88
2018-04-10T08:25:12.418Z,20.14
2018-04-10T08:27:38.842Z,20.81
2018-04-10T08:30:05.392Z,21.63
2018-04-10T08:32:31.712Z,22.59
2018-04-10T08:34:58.217Z,23.14
2018-04-10T08:37:25.370Z,23.34
2018-04-10T08:39:52.098Z,23.33
2018-04-10T08:42:18.693Z,23.59
2018-04-10T08:44:45.164Z,23.19
2018-04-10T08:47:11.787Z,22.85
2018-04-10T08:49:38.504Z,21.79
2018-04-10T08:52:05.237Z,22.39
2018-04-10T08:54:31.809Z,22.68
2018-04-10T08:56:58.293Z,22.75
2018-04-10T08:59:24.912Z,22.89
2018-04-10T09:01:51.364Z,23.43
2018-04-10T09:04:17.792Z,23.81
2018-04-10T09:06:44.224Z,23.67
2018-04-10T09:09:10.724Z,23.29
2018-04-10T09:11:37.308Z,23.74
2018-04-10T09:14:04.009Z,24.18
2018-04-10T09:16:30.459Z,24.09
2018-04-10T09:18:57.003Z,24.28
2018-04-10T09:21:23.722Z,23.98
2018-04-10T09:23:50.257Z,24.19
2018-04-10T09:26:18.794Z,24.58
2018-04-10T09:28:45.707Z,24.57
2018-04-10T09:31:12.120Z,24.59
2018-04-10T09:33:38.559Z,24.39
2018-04-10T09:36:05.044Z,24.88
2018-04-10T09:38:31.488Z,25.11
2018-04-10T09:40:57.989Z,24.87
2018-04-10T09:43:24.436Z,25.22
2018-04-10T09:45:50.955Z,24.55
2018-04-10T09:48:17.391Z,24.93
2018-04-10T09:50:44.186Z,24.32
2018-04-10T09:53:10.794Z,24.19
2018-04-10T09:55:37.350Z,24.57
2018-04-10T09:58:03.726Z,25.37
2018-04-10T10:00:36.249Z,25.11
2018-04-10T10:03:02.673Z,24.70
2018-04-10T10:05:29.110Z,24.58
2018-04-10T10:07:56.338Z,25.30
2018-04-10T10:10:23.013Z,25.51
2018-04-10T10:12:49.775Z,25.76
2018-04-10T10:15:16.182Z,25.72
2018-04-10T10:17:42.690Z,25.41
2018-04-10T10:20:09.277Z,25.83
2018-04-10T10:22:35.676Z,25.58
2018-04-10T10:25:02.113Z,25.75
2018-04-10T10:27:28.564Z,25.77
2018-04-10T10:29:54.985Z,25.52
2018-04-10T10:32:21.446Z,25.60
2018-04-10T10:34:48.051Z,25.97
2018-04-10T10:37:14.684Z,25.90
2018-04-10T10:39:41.111Z,25.54
2018-04-10T10:42:07.506Z,25.76
2018-04-10T10:44:33.962Z,26.04
2018-04-10T10:47:00.341Z,26.01
2018-04-10T10:49:26.814Z,25.64
2018-04-10T10:51:53.186Z,25.28
2018-04-10T10:54:19.584Z,24.84
2018-04-10T10:56:46.034Z,24.73
2018-04-10T10:59:12.521Z,25.11
2018-04-10T11:01:38.956Z,25.35
2018-04-10T11:04:05.355Z,25.95
2018-04-10T11:06:31.775Z,24.83
2018-04-10T11:08:58.168Z,25.33
2018-04-10T11:11:24.580Z,25.24
2018-04-10T11:13:51.021Z,25.20
2018-04-10T11:16:17.509Z,24.95
2018-04-10T11:18:43.948Z,25.18
2018-04-10T11:21:10.445Z,25.66
2018-04-10T11:23:36.952Z,25.26
2018-04-10T11:26:03.553Z,24.90
2018-04-10T11:28:30.006Z,25.41
2018-04-10T11:30:56.423Z,25.70
2018-04-10T11:33:22.875Z,25.17
2018-04-10T11:35:49.357Z,25.41
2018-04-10T11:38:15.749Z,25.36
2018-04-10T11:40:42.219Z,25.23
2018-04-10T11:43:08.746Z,25.18
2018-04-10T11:45:35.105Z,25.14
2018-04-10T11:48:01.518Z,25.66
2018-04-10T11:50:28.087Z,25.71
2018-04-10T11:52:54.471Z,25.74
2018-04-10T11:55:20.867Z,26.22
2018-04-10T11:57:47.224Z,25.90
2018-04-10T12:00:13.783Z,26.04
2018-04-10T12:02:40.225Z,26.11
2018-04-10T12:05:06.610Z,25.93
2018-04-10T12:07:33.134Z,26.40
2018-04-10T12:09:59.595Z,26.40
2018-04-10T12:12:26.052Z,26.38
2018-04-10T12:14:52.440Z,26.25
2018-04-10T12:17:18.846Z,25.63
2018-04-10T12:19:45.406Z,25.69
2018-04-10T12:22:11.854Z,25.45
2018-04-10T12:24:38.214Z,25.92
2018-04-10T12:27:04.728Z,25.42
2018-04-10T12:29:31.171Z,24.82
2018-04-10T12:31:57.592Z,25.12
2018-04-10T12:34:24.109Z,24.86
2018-04-10T12:36:50.544Z,24.90
2018-04-10T12:39:18.011Z,25.20
2018-04-10T12:41:44.691Z,24.96
2018-04-10T12:44:11.133Z,25.07
2018-04-10T12:46:37.557Z,25.14
2018-04-10T12:49:04.148Z,24.98
2018-04-10T12:51:30.663Z,24.94
2018-04-10T12:53:57.116Z,25.12
2018-04-10T12:56:23.524Z,25.22
2018-04-10T12:58:50.067Z,25.65
2018-04-10T13:01:16.580Z,25.15
2018-04-10T13:03:43.059Z,24.80
2018-04-10T13:06:10.053Z,24.90
2018-04-10T13:08:36.962Z,24.70
2018-04-10T13:11:03.434Z,24.34
2018-04-10T13:13:30.826Z,24.79
2018-04-10T13:15:57.301Z,24.79
2018-04-10T13:18:23.827Z,24.36
2018-04-10T13:20:50.428Z,24.67
2018-04-10T13:23:16.940Z,24.63
2018-04-10T13:25:43.343Z,24.98
2018-04-10T13:28:09.696Z,24.94
2018-04-10T13:30:36.241Z,25.25
2018-04-10T13:33:02.700Z,24.83
2018-04-10T13:35:29.136Z,24.44
2018-04-10T13:37:55.564Z,24.63
2018-04-10T13:40:22.296Z,24.49
2018-04-10T13:42:48.727Z,24.12
2018-04-10T13:45:15.213Z,23.90
2018-04-10T13:47:41.666Z,23.98
2018-04-10T13:50:08.055Z,24.13
2018-04-10T13:52:34.459Z,24.28
2018-04-10T13:55:01.399Z,24.15
2018-04-10T13:57:28.505Z,24.37
2018-04-10T13:59:55.153Z,24.22
2018-04-10T14:02:21.699Z,24.37
2018-04-10T14:04:48.277Z,24.38
2018-04-10T14:07:14.780Z,24.36
2018-04-10T14:09:42.218Z,23.98
2018-04-10T14:12:08.689Z,23.81
2018-04-10T14:14:35.180Z,23.54
2018-04-10T14:17:01.769Z,23.55
2018-04-10T14:19:28.264Z,23.82
2018-04-10T14:21:54.851Z,23.63
2018-04-10T14:24:21.399Z,23.47
2018-04-10T14:26:47.885Z,23.29
2018-04-10T14:29:14.430Z,23.14
2018-04-10T14:31:41.456Z,23.14
2018-04-10T14:34:07.994Z,23.21
2018-04-10T14:36:34.567Z,23.10
2018-04-10T14:39:01.024Z,23.22
2018-04-10T14:41:27.501Z,23.22
2018-04-10T14:43:54.005Z,23.39
2018-04-10T14:46:20.519Z,23.37
2018-04-10T14:48:46.928Z,23.33
2018-04-10T14:51:13.473Z,23.19
2018-04-10T14:53:40.003Z,23.22
2018-04-10T14:56:06.536Z,23.25
2018-04-10T14:58:33.010Z,23.09
2018-04-10T15:00:59.575Z,23.10
2018-04-10T15:03:26.145Z,23.07
2018-04-10T15:05:52.574Z,23.03
2018-04-10T15:08:19.073Z,23.16
2018-04-10T15:10:45.610Z,22.89
2018-04-10T15:13:12.002Z,22.78
2018-04-10T15:15:38.528Z,22.73
2018-04-10T15:18:05.021Z,22.78
2018-04-10T15:20:31.574Z,22.85
2018-04-10T15:22:58.119Z,22.95
2018-04-10T15:25:24.479Z,22.75
2018-04-10T15:27:50.957Z,22.45
2018-04-10T15:30:17.446Z,22.50
2018-04-10T15:32:43.881Z,22.35
2018-04-10T15:35:10.261Z,22.19
2018-04-10T15:37:36.716Z,21.91
2018-04-10T15:40:03.247Z,21.74
2018-04-10T15:42:29.637Z,21.79
2018-04-10T15:44:56.166Z,21.69
2018-04-10T15:47:22.588Z,21.38
2018-04-10T15:49:49.077Z,21.35
2018-04-10T15:52:15.574Z,21.30
2018-04-10T15:54:42.316Z,21.31
2018-04-10T15:57:08.674Z,21.21
2018-04-10T15:59:35.437Z,21.05
2018-04-10T16:02:02.096Z,21.06
2018-04-10T16:04:28.523Z,20.97
2018-04-10T16:06:55.078Z,20.79
2018-04-10T16:09:21.666Z,20.66
2018-04-10T16:11:48.437Z,20.58
2018-04-10T16:14:15.028Z,20.52
2018-04-10T16:16:41.568Z,20.40
2018-04-10T16:19:08.961Z,20.10
2018-04-10T16:21:35.531Z,19.98
2018-04-10T16:24:05.538Z,19.84
2018-04-10T16:26:42.928Z,19.68
2018-04-10T16:29:12.940Z,19.67
2018-04-10T16:31:44.005Z,19.62
2018-04-10T16:34:10.584Z,19.43
2018-04-10T16:36:38.278Z,19.31
2018-04-10T16:39:05.944Z,19.10
2018-04-10T16:41:33.158Z,19.10
2018-04-10T16:44:00.361Z,18.98
2018-04-10T16:46:27.034Z,18.94
2018-04-10T16:48:53.635Z,18.96
2018-04-10T16:51:20.150Z,18.77
2018-04-10T16:53:46.666Z,18.85
2018-04-10T16:56:13.289Z,18.85
2018-04-10T16:58:39.949Z,18.67
2018-04-10T17:01:06.737Z,18.64
2018-04-10T17:03:33.673Z,18.53
2018-04-10T17:06:00.202Z,18.56
2018-04-10T17:08:26.633Z,18.49
2018-04-10T17:10:54.209Z,18.42
2018-04-10T17:13:20.830Z,18.27
2018-04-10T17:15:47.690Z,18.32
2018-04-10T17:18:14.180Z,18.18
2018-04-10T17:20:40.844Z,18.19
2018-04-10T17:23:07.514Z,18.10
2018-04-10T17:25:39.922Z,18.09
2018-04-10T17:28:08.065Z,18.08
2018-04-10T17:30:35.036Z,17.76
2018-04-10T17:33:01.787Z,17.74
2018-04-10T17:35:28.241Z,17.85
2018-04-10T17:37:55.048Z,17.76
2018-04-10T17:40:21.624Z,17.79
2018-04-10T17:42:48.462Z,17.73
2018-04-10T17:45:15.050Z,17.65
2018-04-10T17:47:41.558Z,17.60
2018-04-10T17:50:08.037Z,17.59
2018-04-10T17:52:35.269Z,17.41
2018-04-10T17:55:01.752Z,17.29
2018-04-10T17:57:30.495Z,17.43
2018-04-10T17:59:57.178Z,17.47
2018-04-10T18:02:23.723Z,17.48
2018-04-10T18:04:50.791Z,17.46
2018-04-10T18:07:17.404Z,17.43
2018-04-10T18:09:44.234Z,17.36
2018-04-10T18:12:10.877Z,17.36
2018-04-10T18:14:37.538Z,17.25
2018-04-10T18:17:04.056Z,17.19
2018-04-10T18:19:30.818Z,17.24
2018-04-10T18:21:57.557Z,17.11
2018-04-10T18:24:24.481Z,17.04
2018-04-10T18:26:51.697Z,17.03
2018-04-10T18:29:19.190Z,17.07
2018-04-10T18:31:46.188Z,17.15
2018-04-10T18:34:12.987Z,17.32
2018-04-10T18:36:39.522Z,17.08
2018-04-10T18:39:06.651Z,17.21
2018-04-10T18:41:33.476Z,16.83
2018-04-10T18:44:00.260Z,16.77
2018-04-10T18:46:27.183Z,16.94
2018-04-10T18:48:54.231Z,16.73
2018-04-10T18:51:21.200Z,16.46
2018-04-10T18:53:48.478Z,16.35
2018-04-10T18:56:15.093Z,16.41
2018-04-10T18:58:42.030Z,16.16
2018-04-10T19:01:10.478Z,15.94
2018-04-10T19:03:37.396Z,15.87
2018-04-10T19:06:04.071Z,15.96
2018-04-10T19:08:30.876Z,15.82
2018-04-10T19:10:58.494Z,15.64
2018-04-10T19:13:25.097Z,15.53
2018-04-10T19:15:51.620Z,15.46
2018-04-10T19:18:18.105Z,15.14
2018-04-10T19:20:45.690Z,14.99
2018-04-10T19:23:12.579Z,14.92
2018-04-10T19:25:39.228Z,14.76
2018-04-10T19:28:06.122Z,14.64
2018-04-10T19:30:33.241Z,14.62
2018-04-10T19:33:06.324Z,15.03
2018-04-10T19:35:34.381Z,14.91
2018-04-10T19:38:01.098Z,14.87
2018-04-10T19:40:27.840Z,14.71
2018-04-10T19:42:54.416Z,14.58
2018-04-10T19:45:20.959Z,14.39
2018-04-10T19:47:47.504Z,14.73
2018-04-10T19:50:14.020Z,15.35
2018-04-10T19:52:40.432Z,15.14
2018-04-10T19:55:06.980Z,14.98
2018-04-10T19:57:33.500Z,14.91
2018-04-10T20:00:00.113Z,15.05
2018-04-10T20:02:26.852Z,15.18
2018-04-10T20:04:53.561Z,15.10
2018-04-10T20:07:20.117Z,14.66
2018-04-10T20:09:46.813Z,14.72
2018-04-10T20:12:13.493Z,14.45
2018-04-10T20:14:40.884Z,14.32
2018-04-10T20:17:07.641Z,14.18
2018-04-10T20:19:34.285Z,14.15
2018-04-10T20:22:00.818Z,14.35
2018-04-10T20:24:27.380Z,14.68
2018-04-10T20:26:53.790Z,14.82
2018-04-10T20:29:20.233Z,15.03
2018-04-10T20:31:46.771Z,15.24
2018-04-10T20:34:13.180Z,15.11
2018-04-10T20:36:39.545Z,15.18
2018-04-10T20:39:06.004Z,15.32
2018-04-10T20:41:32.458Z,15.25
2018-04-10T20:43:58.956Z,15.33
2018-04-10T20:46:25.494Z,15.53
2018-04-10T20:48:51.993Z,15.47
2018-04-10T20:51:18.554Z,15.49
2018-04-10T20:53:44.928Z,15.48
2018-04-10T20:56:11.327Z,15.50
2018-04-10T20:58:37.696Z,15.53
2018-04-10T21:01:04.092Z,15.23
2018-04-10T21:03:30.477Z,15.39
2018-04-10T21:05:56.839Z,15.08
2018-04-10T21:08:23.413Z,14.96
2018-04-10T21:10:49.794Z,14.92
2018-04-10T21:13:16.226Z,14.61
2018-04-10T21:15:42.660Z,14.47
2018-04-10T21:18:09.042Z,14.45
2018-04-10T21:20:35.546Z,14.45
2018-04-10T21:23:01.941Z,14.58
2018-04-10T21:25:28.298Z,14.62
2018-04-10T21:27:54.796Z,14.74
2018-04-10T21:30:21.361Z,14.77
2018-04-10T21:32:47.759Z,14.61
2018-04-10T21:35:14.901Z,14.65
2018-04-10T21:37:41.337Z,14.70
2018-04-10T21:40:07.771Z,14.95
2018-04-10T21:42:40.245Z,15.13
2018-04-10T21:45:06.672Z,15.06
2018-04-10T21:47:33.000Z,14.77
2018-04-10T21:49:59.356Z,14.70
2018-04-10T21:52:25.846Z,14.70
2018-04-10T21:54:52.191Z,14.43
2018-04-10T21:57:18.603Z,14.06
2018-04-10T21:59:45.050Z,13.91
2018-04-10T22:02:11.430Z,13.94
2018-04-10T22:04:37.759Z,13.92
2018-04-10T22:07:04.241Z,13.69
2018-04-10T22:09:31.268Z,13.60
2018-04-10T22:11:58.285Z,13.81
2018-04-10T22:14:25.598Z,13.86
2018-04-10T22:16:53.081Z,13.92
2018-04-10T22:19:20.244Z,13.86
2018-04-10T22:21:47.264Z,13.91
2018-04-10T22:24:13.629Z,13.86
2018-04-10T22:26:40.020Z,13.95
2018-04-10T22:29:06.646Z,13.58
2018-04-10T22:31:33.132Z,13.23
2018-04-10T22:33:59.529Z,13.27
2018-04-10T22:36:25.969Z,13.42
2018-04-10T22:38:52.321Z,13.05
2018-04-10T22:41:18.987Z,13.10
2018-04-10T22:43:45.473Z,12.83
2018-04-10T22:46:11.979Z,12.55
2018-04-10T22:48:38.388Z,12.55
2018-04-10T22:51:04.887Z,12.44
2018-04-10T22:53:31.336Z,12.12
2018-04-10T22:55:57.911Z,12.00
2018-04-10T22:58:24.363Z,11.80
2018-04-10T23:00:50.740Z,11.60
2018-04-10T23:03:17.063Z,11.44
2018-04-10T23:05:43.448Z,11.36
2018-04-10T23:08:09.842Z,11.25
2018-04-10T23:10:36.467Z,11.20
2018-04-10T23:13:02.832Z,11.13
2018-04-10T23:15:30.269Z,11.07
2018-04-10T23:17:56.705Z,11.02
2018-04-10T23:20:23.277Z,10.98
2018-04-10T23:22:49.671Z,10.95
2018-04-10T23:25:16.013Z,10.92
2018-04-10T23:27:42.410Z,10.92
2018-04-10T23:30:08.808Z,10.86
2018-04-10T23:32:35.198Z,10.82
2018-04-10T23:35:01.601Z,10.76
2018-04-10T23:37:28.046Z,10.77
2018-04-10T23:39:54.551Z,10.78
2018-04-10T23:42:21.049Z,10.80
2018-04-10T23:44:47.477Z,10.74
2018-04-10T23:47:13.854Z,10.65
2018-04-10T23:49:40.903Z,10.60
2018-04-10T23:52:07.207Z,10.67
2018-04-10T23:54:33.503Z,10.67
2018-04-10T23:56:59.876Z,10.62
2018-04-10T23:59:26.162Z,10.49
